Idabel, OK

12:07 AM CST on March 02, 2015 (GMT -0600)
Stone Haven | Change Station
CLOSE
Current Station
Personal Weather Station
Location: Idabel, OK
Elevation: 489 ft
Nearby Weather Stations

Elev 489 ft 33.87 °N, 94.83 °W | Updated 8 seconds ago

Overcast
Overcast
40.6 °F
Feels Like 41 °F
N
3.0
Wind Variable Wind from NW
Gusts 3.0 mph

Today
High -- | Low -- °F
--% Chance of Precip.
Yesterday
High -- | Low -- °F
Precip. -- in
6:46 AM 6:16 PM
Waxing Gibbous, 89% visible
Pressure 30.38 in
Visibility 10.0 miles
Clouds Mostly Cloudy 1500 ft
Overcast 2000 ft
Windchill 41 °F
Dew Point 39 °F
Humidity 94%
Rainfall 0.00 in
Snow Depth Not available.
UV 0 out of 12
Pollen 2.00 out of 12
Air Quality Not available.
Flu Activity Not available.
METAR K4O4 020555Z AUTO 00000KT 10SM BKN015 OVC020 03/02 A3038 RMK AO2

More Conditions Fewer Conditions

Pressure 30.38 in
Visibility 10.0 miles
Clouds Mostly Cloudy 1500 ft
Overcast 2000 ft
Windchill 41 °F
Dew Point 39 °F
Humidity 94%
Rainfall 0.00 in
Snow Depth Not available.
UV 0 out of 12
Pollen 2.00 out of 12
Air Quality Not available.
Flu Activity Not available.
METAR K4O4 020555Z AUTO 00000KT 10SM BKN015 OVC020 03/02 A3038 RMK AO2

More Conditions Fewer Conditions

Nowcast | as of 11:48 PM CST on March 1, 2015

Scattered areas of light rain continue over the four state area with widespread drizzle and fog that will persist overnight. A weak cold front will remain stationary along I-10...but the cool air is very shallow and warm moist southwest flow aloft will linger. Expect reduced visibilities of one to three miles to be common along with the light precipitation and the light fog. Occasional dips in visibility below 1 mile are possible in patchy dense fog pockets and perhaps even more so becoming wide spread...by daybreak.

×

10-Day Weather Forecast

Almanac

Astronomy

Mar. 02, 2015 Rise Set
Actual Time
Civil Twilight
Nautical Twilight
Astronomical Twilight
Moon
Length of Visible Light
Length of Day
Tomorrow will be .
, % of the Moon is Illuminated

Today's Extremes

State Highs State Lows

Community

WunderPhotos

Upload Photos

1,801,738 photos uploaded!

WunderBlogs® & News

Nearby

Air Quality

  Air Quality AQ Index Pollutant
Not available.

Snow Depth

Station Depth Elevation

Earthquake Activity

City Distance Mag. Time & Date
Minimum magnitude displayed is 2.5.

Coastal Water Temperatures

Place Temperature

Nearby Weather Stations